Rapid City, SD

3:27 AM MDT on August 29, 2014 (GMT -0600)
Bogus Jim Road | Change Station
CLOSE
Current Station
Personal Weather Station
Location: Rapid City, SD
Elevation: 4419 ft
Nearby Weather Stations

Elev 4419 ft 44.12 °N, 103.44 °W | Updated 9 seconds ago

Partly Cloudy
Partly Cloudy
53.6 °F
Feels Like 53.6 °F
N
0.0
Wind Variable Wind from NW
Gusts 0.0 mph

Today
High -- | Low -- °F
--% Chance of Precip.
Yesterday
High -- | Low -- °F
Precip. -- in
6:13 AM 7:34 PM
Waxing Crescent, 13% visible
Pressure 29.85 in
Visibility 10.0 miles
Clouds Clear
Dew Point Not available.
Humidity Not available.
Rainfall 0.00 in
Snow Depth Not available.
UV 0 out of 12
Pollen 8.00 out of 12
Air Quality Not available.
Flu Activity Not available.
METAR KRCA 290858Z AUTO 28007KT 10SM CLR 14/11 A2989 RMK AO2 SLP106 T01400113 55008 $

More Conditions Fewer Conditions

Pressure 29.85 in
Visibility 10.0 miles
Clouds Clear
Dew Point Not available.
Humidity Not available.
Rainfall 0.00 in
Snow Depth Not available.
UV 0 out of 12
Pollen 8.00 out of 12
Air Quality Not available.
Flu Activity Not available.
METAR KRCA 290858Z AUTO 28007KT 10SM CLR 14/11 A2989 RMK AO2 SLP106 T01400113 55008 $

More Conditions Fewer Conditions

10-Day Weather Forecast

Almanac

Astronomy

Aug. 29, 2014 Rise Set
Actual Time 6:13 AM MDT 7:34 PM MDT
Civil Twilight 5:43 AM MDT 8:04 PM MDT
Nautical Twilight 5:07 AM MDT 8:40 PM MDT
Astronomical Twilight 4:28 AM MDT 9:19 PM MDT
Moon 10:14 AM MDT 9:23 PM MDT
Length of Visible Light 14h 21m
Length of Day
13h 21m
Tomorrow will be 2m 54s shorter.
Waxing Crescent, 13% of the Moon is Illuminated
Today
Waxing Crescent
Sep 2
First Quarter
Sep 8
Full
Sep 15
Last Quarter
Sep 24
New

Today's Extremes

State Highs State Lows

Community

WunderPhotos

Upload Photos

1,748,203 photos uploaded!

Nearby

Snow Depth

Station Depth Elevation
Blind Park 0 in 6890 ft

Earthquake Activity

City Distance Mag. Time & Date
No recent earthquake activity has been reported nearby.
Minimum magnitude displayed is 2.5.

Coastal Water Temperatures

Place Temperature
No Stations Reporting

Nearby Weather Stations